createdAt,value
2022-11-02T00:01:45.545Z,11.40
2022-11-02T00:04:13.106Z,11.39
2022-11-02T00:06:40.650Z,11.40
2022-11-02T00:09:08.378Z,11.40
2022-11-02T00:11:35.501Z,11.41
2022-11-02T00:14:03.420Z,11.41
2022-11-02T00:16:32.929Z,11.41
2022-11-02T00:19:01.941Z,11.41
2022-11-02T00:21:29.462Z,11.41
2022-11-02T00:23:58.582Z,11.40
2022-11-02T00:26:26.702Z,11.34
2022-11-02T00:28:55.826Z,11.32
2022-11-02T00:31:22.921Z,11.32
2022-11-02T00:33:52.561Z,11.32
2022-11-02T00:36:20.346Z,11.31
2022-11-02T00:38:47.903Z,11.36
2022-11-02T00:41:17.640Z,11.37
2022-11-02T00:43:45.574Z,11.36
2022-11-02T00:46:13.099Z,11.37
2022-11-02T00:48:40.553Z,11.38
2022-11-02T00:51:10.322Z,11.37
2022-11-02T00:53:38.120Z,11.32
2022-11-02T00:56:07.474Z,11.29
2022-11-02T00:58:34.710Z,11.24
2022-11-02T01:01:05.373Z,11.22
2022-11-02T01:03:33.302Z,11.21
2022-11-02T01:06:12.019Z,11.20
2022-11-02T01:08:40.124Z,11.25
2022-11-02T01:11:15.720Z,11.25
2022-11-02T01:13:43.301Z,11.26
2022-11-02T01:16:12.029Z,11.30
2022-11-02T01:18:39.561Z,11.31
2022-11-02T01:21:07.992Z,11.33
2022-11-02T01:23:38.447Z,11.30
2022-11-02T01:26:08.508Z,11.28
2022-11-02T01:28:36.766Z,11.28
2022-11-02T01:31:04.197Z,11.30
2022-11-02T01:33:32.014Z,11.30
2022-11-02T01:35:59.588Z,11.29
2022-11-02T01:38:27.183Z,11.29
2022-11-02T01:40:56.171Z,11.29
2022-11-02T01:43:25.429Z,11.31
2022-11-02T01:45:59.192Z,11.30
2022-11-02T01:48:31.834Z,11.30
2022-11-02T01:51:02.554Z,11.32
2022-11-02T01:53:30.730Z,11.29
2022-11-02T01:56:01.687Z,11.30
2022-11-02T01:58:30.241Z,11.28
2022-11-02T02:00:57.748Z,11.28
2022-11-02T02:03:26.230Z,11.28
2022-11-02T02:06:03.452Z,11.25
2022-11-02T02:08:33.196Z,11.24
2022-11-02T02:11:01.582Z,11.19
2022-11-02T02:13:29.923Z,11.17
2022-11-02T02:16:09.441Z,11.15
2022-11-02T02:18:43.359Z,11.13
2022-11-02T02:21:26.251Z,11.12
2022-11-02T02:24:15.764Z,11.13
2022-11-02T02:27:00.035Z,11.18
2022-11-02T02:29:37.756Z,11.20
2022-11-02T02:32:14.275Z,11.20
2022-11-02T02:34:50.409Z,11.20
2022-11-02T02:37:22.418Z,11.22
2022-11-02T02:39:57.311Z,11.21
2022-11-02T02:42:31.236Z,11.18
2022-11-02T02:45:10.261Z,11.20
2022-11-02T02:47:43.525Z,11.21
2022-11-02T02:50:16.504Z,11.22
2022-11-02T02:52:47.509Z,11.18
2022-11-02T02:55:19.300Z,11.13
2022-11-02T02:57:48.580Z,11.07
2022-11-02T03:00:19.039Z,11.03
2022-11-02T03:02:47.304Z,11.05
2022-11-02T03:05:25.216Z,11.13
2022-11-02T03:07:52.260Z,11.11
2022-11-02T03:10:22.556Z,11.16
2022-11-02T03:13:03.804Z,11.13
2022-11-02T03:15:40.642Z,11.09
2022-11-02T03:18:17.267Z,11.08
2022-11-02T03:20:54.267Z,11.07
2022-11-02T03:23:28.421Z,11.11
2022-11-02T03:26:02.689Z,11.11
2022-11-02T03:28:43.588Z,11.13
2022-11-02T03:31:18.124Z,11.18
2022-11-02T03:33:57.269Z,11.18
2022-11-02T03:36:32.795Z,11.17
2022-11-02T03:39:04.932Z,11.17
2022-11-02T03:41:34.624Z,11.17
2022-11-02T03:44:08.174Z,11.13
2022-11-02T03:46:40.684Z,11.12
2022-11-02T03:49:14.391Z,11.11
2022-11-02T03:51:45.449Z,11.10
2022-11-02T03:54:22.890Z,11.07
2022-11-02T03:56:53.664Z,11.02
2022-11-02T03:59:22.392Z,11.00
2022-11-02T04:01:53.193Z,10.94
2022-11-02T04:04:22.585Z,10.93
2022-11-02T04:06:50.218Z,10.91
2022-11-02T04:09:17.930Z,10.93
2022-11-02T04:11:45.835Z,10.93
2022-11-02T04:14:13.582Z,10.91
2022-11-02T04:16:41.761Z,10.91
2022-11-02T04:19:12.176Z,10.88
2022-11-02T04:21:39.684Z,10.88
2022-11-02T04:24:08.825Z,10.89
2022-11-02T04:26:35.906Z,10.90
2022-11-02T04:29:03.197Z,10.92
2022-11-02T04:31:31.605Z,10.90
2022-11-02T04:33:59.204Z,10.89
2022-11-02T04:36:30.002Z,10.89
2022-11-02T04:38:57.775Z,10.91
2022-11-02T04:41:25.920Z,10.91
2022-11-02T04:43:53.933Z,10.90
2022-11-02T04:46:23.206Z,10.91
2022-11-02T04:48:51.376Z,10.89
2022-11-02T04:51:19.212Z,10.89
2022-11-02T04:53:48.636Z,10.87
2022-11-02T04:56:16.459Z,10.85
2022-11-02T04:58:44.017Z,10.85
2022-11-02T05:01:14.590Z,10.84
2022-11-02T05:03:42.114Z,10.81
2022-11-02T05:06:11.672Z,10.78
2022-11-02T05:08:39.193Z,10.77
2022-11-02T05:11:09.113Z,10.73
2022-11-02T05:13:37.066Z,10.72
2022-11-02T05:16:05.762Z,10.71
2022-11-02T05:18:33.251Z,10.72
2022-11-02T05:21:01.799Z,10.73
2022-11-02T05:23:29.383Z,10.74
2022-11-02T05:25:57.991Z,10.74
2022-11-02T05:28:28.679Z,10.72
2022-11-02T05:30:58.533Z,10.72
2022-11-02T05:33:30.362Z,10.72
2022-11-02T05:35:58.649Z,10.68
2022-11-02T05:38:26.498Z,10.65
2022-11-02T05:40:53.872Z,10.62
2022-11-02T05:43:22.336Z,10.60
2022-11-02T05:45:56.078Z,10.57
2022-11-02T05:48:24.326Z,10.55
2022-11-02T05:50:56.381Z,10.52
2022-11-02T05:53:23.534Z,10.51
2022-11-02T05:55:51.265Z,10.49
2022-11-02T05:58:18.564Z,10.47
2022-11-02T06:00:45.998Z,10.43
2022-11-02T06:03:14.869Z,10.44
2022-11-02T06:05:42.139Z,10.42
2022-11-02T06:08:09.704Z,10.42
2022-11-02T06:10:36.778Z,10.41
2022-11-02T06:13:04.920Z,10.37
2022-11-02T06:15:33.119Z,10.39
2022-11-02T06:18:00.173Z,10.37
2022-11-02T06:20:29.056Z,10.36
2022-11-02T06:22:56.508Z,10.36
2022-11-02T06:25:23.631Z,10.35
2022-11-02T06:27:51.891Z,10.32
2022-11-02T06:30:19.362Z,10.31
2022-11-02T06:32:50.441Z,10.28
2022-11-02T06:35:18.890Z,10.26
2022-11-02T06:37:47.905Z,10.23
2022-11-02T06:40:15.650Z,10.25
2022-11-02T06:42:45.270Z,10.19
2022-11-02T06:45:17.846Z,10.14
2022-11-02T06:47:45.109Z,10.12
2022-11-02T06:50:12.107Z,10.06
2022-11-02T06:52:43.351Z,10.04
2022-11-02T06:55:12.879Z,10.06
2022-11-02T06:57:41.010Z,10.07
2022-11-02T07:00:11.263Z,10.11
2022-11-02T07:02:38.360Z,10.13
2022-11-02T07:05:06.644Z,10.16
2022-11-02T07:07:33.839Z,10.22
2022-11-02T07:10:01.403Z,10.27
2022-11-02T07:12:31.616Z,10.36
2022-11-02T07:14:58.859Z,10.41
2022-11-02T07:17:31.901Z,10.46
2022-11-02T07:19:59.833Z,10.52
2022-11-02T07:22:27.195Z,10.50
2022-11-02T07:24:54.434Z,10.55
2022-11-02T07:27:21.475Z,10.59
2022-11-02T07:29:50.066Z,10.67
2022-11-02T07:32:17.379Z,10.72
2022-11-02T07:34:44.492Z,10.77
2022-11-02T07:37:11.729Z,10.82
2022-11-02T07:39:39.122Z,10.89
2022-11-02T07:44:38.541Z,11.01
2022-11-02T07:47:07.363Z,11.08
2022-11-02T07:49:34.389Z,11.13
2022-11-02T07:52:01.524Z,11.15
2022-11-02T07:54:28.459Z,11.21
2022-11-02T07:56:55.833Z,11.26
2022-11-02T07:59:22.863Z,11.32
2022-11-02T08:01:50.041Z,11.39
2022-11-02T08:04:18.760Z,11.45
2022-11-02T08:06:45.879Z,11.49
2022-11-02T08:09:12.875Z,11.56
2022-11-02T08:11:39.923Z,11.60
2022-11-02T08:14:07.089Z,11.66
2022-11-02T08:16:34.256Z,11.66
2022-11-02T08:19:01.374Z,11.74
2022-11-02T08:21:30.142Z,11.79
2022-11-02T08:23:58.641Z,11.84
2022-11-02T08:26:26.085Z,11.91
2022-11-02T08:28:53.616Z,11.94
2022-11-02T08:31:21.150Z,12.01
2022-11-02T08:33:48.945Z,12.05
2022-11-02T08:36:16.408Z,12.13
2022-11-02T08:38:46.020Z,12.15
2022-11-02T08:41:13.460Z,12.18
2022-11-02T08:43:40.978Z,12.21
2022-11-02T08:46:14.928Z,12.26
2022-11-02T08:48:43.515Z,12.30
2022-11-02T08:51:10.878Z,12.38
2022-11-02T08:53:38.547Z,12.38
2022-11-02T08:56:08.063Z,12.45
2022-11-02T08:58:35.346Z,12.47
2022-11-02T09:01:02.670Z,12.53
2022-11-02T09:03:30.255Z,12.60
2022-11-02T09:05:59.322Z,12.70
2022-11-02T09:08:27.202Z,12.80
2022-11-02T09:10:58.094Z,12.91
2022-11-02T09:13:27.553Z,13.00
2022-11-02T09:15:56.662Z,13.10
2022-11-02T09:18:25.138Z,13.14
2022-11-02T09:20:52.626Z,13.18
2022-11-02T09:23:21.695Z,13.25
2022-11-02T09:25:50.564Z,13.34
2022-11-02T09:28:17.869Z,13.38
2022-11-02T09:30:47.504Z,13.46
2022-11-02T09:33:16.478Z,13.56
2022-11-02T09:35:46.077Z,13.65
2022-11-02T09:38:14.241Z,13.71
2022-11-02T09:40:45.607Z,13.78
2022-11-02T09:43:21.538Z,13.83
2022-11-02T09:45:57.305Z,13.82
2022-11-02T09:48:29.359Z,13.83
2022-11-02T09:51:03.684Z,13.88
2022-11-02T09:53:40.007Z,13.97
2022-11-02T09:56:10.143Z,14.03
2022-11-02T09:58:40.485Z,14.04
2022-11-02T10:01:29.413Z,14.11
2022-11-02T10:04:22.281Z,14.20
2022-11-02T10:07:03.201Z,14.25
2022-11-02T10:09:39.688Z,14.34
2022-11-02T10:12:12.670Z,14.36
2022-11-02T10:14:48.332Z,14.38
2022-11-02T10:17:21.036Z,14.43
2022-11-02T10:19:54.170Z,14.46
2022-11-02T10:22:25.136Z,14.50
2022-11-02T10:24:54.916Z,14.56
2022-11-02T10:27:25.941Z,14.67
2022-11-02T10:29:58.208Z,14.74
2022-11-02T10:32:27.105Z,14.82
2022-11-02T10:34:59.099Z,14.92
2022-11-02T10:37:54.724Z,15.02
2022-11-02T10:40:38.540Z,15.05
2022-11-02T10:43:18.227Z,15.07
2022-11-02T10:46:11.708Z,15.14
2022-11-02T10:48:49.439Z,15.20
2022-11-02T10:51:17.613Z,15.23
2022-11-02T10:53:47.013Z,15.25
2022-11-02T10:56:18.072Z,15.34
2022-11-02T10:58:52.003Z,15.38
2022-11-02T11:01:19.784Z,15.44
2022-11-02T11:04:21.633Z,15.48
2022-11-02T11:06:49.447Z,15.50
2022-11-02T11:09:18.856Z,15.56
2022-11-02T11:11:55.057Z,15.53
2022-11-02T11:20:21.599Z,15.59
2022-11-02T11:23:08.870Z,15.70
2022-11-02T11:25:36.366Z,15.79
2022-11-02T11:28:23.069Z,15.86
2022-11-02T11:31:04.312Z,15.81
2022-11-02T11:33:34.156Z,15.79
2022-11-02T11:36:03.143Z,15.82
2022-11-02T11:38:30.351Z,15.88
2022-11-02T11:40:59.859Z,15.84
2022-11-02T11:43:29.720Z,15.92
2022-11-02T11:46:05.238Z,16.00
2022-11-02T11:48:37.661Z,16.01
2022-11-02T11:51:26.631Z,16.07
2022-11-02T11:54:25.526Z,16.14
2022-11-02T11:56:55.219Z,16.21
2022-11-02T11:59:31.692Z,16.27
2022-11-02T12:02:00.823Z,16.30
2022-11-02T12:04:30.992Z,16.31
2022-11-02T12:07:26.811Z,16.28
2022-11-02T12:10:05.385Z,16.31
2022-11-02T12:12:46.585Z,16.32
2022-11-02T12:15:35.858Z,16.36
2022-11-02T12:18:26.445Z,16.43
2022-11-02T12:21:14.287Z,16.40
2022-11-02T12:24:13.615Z,16.43
2022-11-02T12:26:57.106Z,16.38
2022-11-02T12:29:50.571Z,16.41
2022-11-02T12:32:37.609Z,16.42
2022-11-02T12:35:29.705Z,16.47
2022-11-02T12:38:21.968Z,16.54
2022-11-02T12:41:02.302Z,16.57
2022-11-02T12:43:39.984Z,16.58
2022-11-02T12:46:16.894Z,16.56
2022-11-02T12:48:54.157Z,16.52
2022-11-02T12:51:25.247Z,16.57
2022-11-02T12:53:57.666Z,16.66
2022-11-02T12:56:31.650Z,16.60
2022-11-02T12:59:00.594Z,16.60
2022-11-02T13:01:32.683Z,16.57
2022-11-02T13:04:09.884Z,16.61
2022-11-02T13:06:42.341Z,16.65
2022-11-02T13:09:14.606Z,16.70
2022-11-02T13:11:47.410Z,16.77
2022-11-02T13:14:19.328Z,16.79
2022-11-02T13:16:53.664Z,16.81
2022-11-02T13:19:24.161Z,16.81
2022-11-02T13:21:54.911Z,16.79
2022-11-02T13:24:30.774Z,16.78
2022-11-02T13:29:56.305Z,16.80
2022-11-02T13:32:34.025Z,16.80
2022-11-02T13:35:11.854Z,16.84
2022-11-02T13:37:44.201Z,16.82
2022-11-02T13:40:19.121Z,16.86
2022-11-02T13:43:19.683Z,16.95
2022-11-02T13:46:25.587Z,17.04
2022-11-02T13:49:00.366Z,17.10
2022-11-02T13:51:35.167Z,17.10
2022-11-02T13:54:06.552Z,17.12
2022-11-02T13:56:37.907Z,17.09
2022-11-02T13:59:08.183Z,17.14
2022-11-02T14:01:39.917Z,17.12
2022-11-02T14:04:11.689Z,17.12
2022-11-02T14:06:54.122Z,17.11
2022-11-02T14:09:27.204Z,17.10
2022-11-02T14:12:13.914Z,17.07
2022-11-02T14:14:41.638Z,17.01
2022-11-02T14:17:14.499Z,16.90
2022-11-02T14:20:31.549Z,16.82
2022-11-02T14:23:31.781Z,16.80
2022-11-02T14:25:59.229Z,16.81
2022-11-02T14:28:44.646Z,16.79
2022-11-02T14:31:44.222Z,16.80
2022-11-02T14:34:37.856Z,16.73
2022-11-02T14:37:26.560Z,16.70
2022-11-02T14:40:01.433Z,16.67
2022-11-02T14:42:51.562Z,16.65
2022-11-02T14:45:30.558Z,16.67
2022-11-02T14:48:01.834Z,16.65
2022-11-02T14:50:29.601Z,16.65
2022-11-02T14:53:04.706Z,16.64
2022-11-02T14:55:34.368Z,16.63
2022-11-02T14:58:10.557Z,16.62
2022-11-02T15:00:55.062Z,16.59
2022-11-02T15:03:32.956Z,16.58
2022-11-02T15:06:04.035Z,16.55
2022-11-02T15:08:35.993Z,16.54
2022-11-02T15:11:36.509Z,16.50
2022-11-02T15:14:28.503Z,16.45
2022-11-02T15:16:55.863Z,16.40
2022-11-02T15:19:41.308Z,16.41
2022-11-02T15:22:32.700Z,16.36
2022-11-02T15:25:06.070Z,16.32
2022-11-02T15:27:35.577Z,16.23
2022-11-02T15:30:05.174Z,16.17
2022-11-02T15:32:40.305Z,16.12
2022-11-02T15:35:17.238Z,16.07
2022-11-02T15:38:11.192Z,16.00
2022-11-02T15:40:47.164Z,15.97
2022-11-02T15:43:29.780Z,15.89
2022-11-02T15:46:06.636Z,15.84
2022-11-02T15:48:47.144Z,15.79
2022-11-02T15:51:22.323Z,15.74
2022-11-02T15:54:13.898Z,15.72
2022-11-02T15:56:54.851Z,15.69
2022-11-02T15:59:46.985Z,15.60
2022-11-02T16:02:33.521Z,15.54
2022-11-02T16:05:02.807Z,15.49
2022-11-02T16:07:43.629Z,15.47
2022-11-02T16:10:23.787Z,15.40
2022-11-02T16:13:12.837Z,15.35
2022-11-02T16:15:42.186Z,15.30
2022-11-02T16:18:28.634Z,15.23
2022-11-02T16:20:59.025Z,15.20
2022-11-02T16:23:29.623Z,15.19
2022-11-02T16:25:59.571Z,15.17
2022-11-02T16:28:32.438Z,15.15
2022-11-02T16:31:19.305Z,15.09
2022-11-02T16:33:49.290Z,15.04
2022-11-02T16:36:19.832Z,14.95
2022-11-02T16:38:56.565Z,14.89
2022-11-02T16:41:26.608Z,14.86
2022-11-02T16:44:00.656Z,14.82
2022-11-02T16:46:41.230Z,14.80
2022-11-02T16:49:15.406Z,14.70
2022-11-02T16:51:49.392Z,14.59
2022-11-02T16:54:31.021Z,14.49
2022-11-02T16:57:06.105Z,14.40
2022-11-02T16:59:39.568Z,14.36
2022-11-02T17:02:12.803Z,14.38
2022-11-02T17:04:43.193Z,14.30
2022-11-02T17:07:16.623Z,14.25
2022-11-02T17:09:45.088Z,14.22
2022-11-02T17:12:15.781Z,14.20
2022-11-02T17:14:47.110Z,14.15
2022-11-02T17:17:36.804Z,14.12
2022-11-02T17:20:20.339Z,14.15
2022-11-02T17:22:57.991Z,14.11
2022-11-02T17:25:32.937Z,14.05
2022-11-02T17:28:04.225Z,13.96
2022-11-02T17:30:53.314Z,13.92
2022-11-02T17:33:34.641Z,13.93
2022-11-02T17:36:07.621Z,13.89
2022-11-02T17:38:42.099Z,13.87
2022-11-02T17:41:16.426Z,13.88
2022-11-02T17:43:46.306Z,13.86
2022-11-02T17:46:21.801Z,13.77
2022-11-02T17:48:49.227Z,13.70
2022-11-02T17:51:22.543Z,13.62
2022-11-02T17:53:53.691Z,13.58
2022-11-02T17:56:22.279Z,13.63
2022-11-02T17:58:53.723Z,13.61
2022-11-02T18:01:43.188Z,13.64
2022-11-02T18:04:12.452Z,13.64
2022-11-02T18:06:41.224Z,13.57
2022-11-02T18:09:09.080Z,13.55
2022-11-02T18:11:39.947Z,13.46
2022-11-02T18:14:17.487Z,13.44
2022-11-02T18:16:50.418Z,13.40
2022-11-02T18:19:24.946Z,13.38
2022-11-02T18:21:53.116Z,13.32
2022-11-02T18:24:26.225Z,13.32
2022-11-02T18:26:54.914Z,13.29
2022-11-02T18:29:25.697Z,13.27
2022-11-02T18:31:56.818Z,13.25
2022-11-02T18:34:25.459Z,13.28
2022-11-02T18:36:53.897Z,13.29
2022-11-02T18:39:22.526Z,13.31
2022-11-02T18:41:50.866Z,13.30
2022-11-02T18:44:19.759Z,13.34
2022-11-02T18:46:49.574Z,13.31
2022-11-02T18:49:20.804Z,13.27
2022-11-02T18:51:48.635Z,13.22
2022-11-02T18:54:16.509Z,13.25
2022-11-02T18:56:44.516Z,13.26
2022-11-02T18:59:12.960Z,13.29
2022-11-02T19:01:42.125Z,13.35
2022-11-02T19:04:17.144Z,13.36
2022-11-02T19:06:46.834Z,13.35
2022-11-02T19:09:16.257Z,13.32
2022-11-02T19:11:45.280Z,13.33
2022-11-02T19:14:13.081Z,13.29
2022-11-02T19:16:42.417Z,13.31
2022-11-02T19:19:12.425Z,13.28
2022-11-02T19:21:41.866Z,13.32
2022-11-02T19:24:12.365Z,13.32
2022-11-02T19:26:40.799Z,13.35
2022-11-02T19:29:10.175Z,13.34
2022-11-02T19:31:41.434Z,13.40
2022-11-02T19:34:12.080Z,13.37
2022-11-02T19:36:42.019Z,13.38
2022-11-02T19:39:13.277Z,13.39
2022-11-02T19:41:42.163Z,13.35
2022-11-02T19:44:11.253Z,13.31
2022-11-02T19:46:39.029Z,13.25
2022-11-02T19:49:08.651Z,13.19
2022-11-02T19:51:36.576Z,13.14
2022-11-02T19:54:06.909Z,13.11
2022-11-02T19:56:38.235Z,13.13
2022-11-02T19:59:10.562Z,13.07
2022-11-02T20:01:40.024Z,12.99
2022-11-02T20:04:10.239Z,13.01
2022-11-02T20:06:40.660Z,12.96
2022-11-02T20:09:16.655Z,12.93
2022-11-02T20:11:49.460Z,12.89
2022-11-02T20:14:17.636Z,12.84
2022-11-02T20:16:58.754Z,12.82
2022-11-02T20:19:32.835Z,12.86
2022-11-02T20:22:00.807Z,12.82
2022-11-02T20:24:30.475Z,12.75
2022-11-02T20:27:00.648Z,12.75
2022-11-02T20:29:28.625Z,12.68
2022-11-02T20:31:57.926Z,12.66
2022-11-02T20:34:26.533Z,12.64
2022-11-02T20:36:54.700Z,12.61
2022-11-02T20:39:22.721Z,12.60
2022-11-02T20:41:51.007Z,12.62
2022-11-02T20:44:21.406Z,12.60
2022-11-02T20:46:52.999Z,12.59
2022-11-02T20:49:48.817Z,12.62
2022-11-02T20:52:11.004Z,12.58
2022-11-02T20:54:38.395Z,12.53
2022-11-02T20:57:06.515Z,12.50
2022-11-02T20:59:38.046Z,12.51
2022-11-02T21:02:06.408Z,12.52
2022-11-02T21:04:38.115Z,12.54
2022-11-02T21:07:07.267Z,12.54
2022-11-02T21:09:35.972Z,12.52
2022-11-02T21:12:03.657Z,12.52
2022-11-02T21:14:30.934Z,12.56
2022-11-02T21:17:00.405Z,12.53
2022-11-02T21:19:27.909Z,12.53
2022-11-02T21:21:59.330Z,12.44
2022-11-02T21:24:27.676Z,12.38
2022-11-02T21:26:55.388Z,12.41
2022-11-02T21:29:23.251Z,12.42
2022-11-02T21:31:50.676Z,12.39
2022-11-02T21:34:20.431Z,12.39
2022-11-02T21:36:48.302Z,12.40
2022-11-02T21:39:16.139Z,12.41
2022-11-02T21:41:43.651Z,12.42
2022-11-02T21:44:10.935Z,12.40
2022-11-02T21:46:38.161Z,12.42
2022-11-02T21:49:05.512Z,12.42
2022-11-02T21:51:34.121Z,12.42
2022-11-02T21:54:01.181Z,12.42
2022-11-02T21:56:28.652Z,12.41
2022-11-02T21:58:56.957Z,12.40
2022-11-02T22:01:25.936Z,12.39
2022-11-02T22:03:54.368Z,12.35
2022-11-02T22:06:25.915Z,12.36
2022-11-02T22:08:58.102Z,12.38
2022-11-02T22:11:26.328Z,12.38
2022-11-02T22:13:55.033Z,12.38
2022-11-02T22:16:24.771Z,12.43
2022-11-02T22:18:53.634Z,12.39
2022-11-02T22:21:21.118Z,12.41
2022-11-02T22:23:49.650Z,12.44
2022-11-02T22:26:19.638Z,12.45
2022-11-02T22:28:47.977Z,12.43
2022-11-02T22:31:16.976Z,12.41
2022-11-02T22:33:45.547Z,12.37
2022-11-02T22:36:14.863Z,12.36
2022-11-02T22:38:42.642Z,12.37
2022-11-02T22:41:09.983Z,12.34
2022-11-02T22:43:39.112Z,12.32
2022-11-02T22:46:08.071Z,12.31
2022-11-02T22:48:36.046Z,12.38
2022-11-02T22:51:05.131Z,12.41
2022-11-02T22:53:32.961Z,12.43
2022-11-02T22:56:01.913Z,12.44
2022-11-02T22:58:32.089Z,12.45
2022-11-02T23:01:00.858Z,12.43
2022-11-02T23:03:30.832Z,12.42
2022-11-02T23:06:01.049Z,12.42
2022-11-02T23:08:29.652Z,12.45
2022-11-02T23:10:58.765Z,12.42
2022-11-02T23:13:27.271Z,12.45
2022-11-02T23:16:06.415Z,12.46
2022-11-02T23:18:33.847Z,12.49
2022-11-02T23:21:01.113Z,12.48
2022-11-02T23:23:28.411Z,12.51
2022-11-02T23:25:56.094Z,12.48
2022-11-02T23:30:57.154Z,12.42
2022-11-02T23:33:31.055Z,12.40
2022-11-02T23:36:00.518Z,12.39
2022-11-02T23:38:28.011Z,12.39
2022-11-02T23:40:55.284Z,12.38
2022-11-02T23:43:22.974Z,12.39
2022-11-02T23:45:50.874Z,12.41
2022-11-02T23:48:18.395Z,12.43
2022-11-02T23:50:49.791Z,12.44
2022-11-02T23:53:19.491Z,12.44
2022-11-02T23:55:47.368Z,12.46
2022-11-02T23:58:14.782Z,12.45
